createdAt,value
2023-03-03T00:02:12.763Z,73.67
2023-03-03T00:04:41.342Z,74.16
2023-03-03T00:07:09.314Z,74.64
2023-03-03T00:09:37.780Z,75.35
2023-03-03T00:12:25.065Z,75.24
2023-03-03T00:14:54.202Z,75.28
2023-03-03T00:17:25.096Z,74.52
2023-03-03T00:19:53.643Z,73.61
2023-03-03T00:22:32.229Z,73.96
2023-03-03T00:25:31.937Z,74.19
2023-03-03T00:28:31.088Z,74.33
2023-03-03T00:31:01.807Z,73.39
2023-03-03T00:33:35.534Z,74.07
2023-03-03T00:36:16.493Z,74.39
2023-03-03T00:38:44.447Z,74.05
2023-03-03T00:41:27.945Z,74.09
2023-03-03T00:43:55.944Z,74.71
2023-03-03T00:46:24.517Z,74.43
2023-03-03T00:48:53.082Z,74.35
2023-03-03T00:51:28.539Z,74.09
2023-03-03T00:53:58.417Z,74.22
2023-03-03T00:56:27.930Z,74.59
2023-03-03T00:58:56.146Z,73.76
2023-03-03T01:01:25.992Z,73.55
2023-03-03T01:03:55.562Z,73.18
2023-03-03T01:06:24.018Z,73.74
2023-03-03T01:08:52.105Z,74.50
2023-03-03T01:11:24.175Z,74.46
2023-03-03T01:13:53.628Z,74.59
2023-03-03T01:16:22.040Z,75.15
2023-03-03T01:18:51.775Z,74.85
2023-03-03T01:21:20.157Z,75.70
2023-03-03T01:23:48.117Z,74.98
2023-03-03T01:26:16.826Z,74.15
2023-03-03T01:28:44.793Z,74.75
2023-03-03T01:31:13.871Z,75.31
2023-03-03T01:33:42.143Z,74.37
2023-03-03T01:36:10.569Z,74.11
2023-03-03T01:38:39.462Z,74.39
2023-03-03T01:41:07.722Z,74.04
2023-03-03T01:43:35.726Z,74.24
2023-03-03T01:46:03.969Z,74.90
2023-03-03T01:48:39.240Z,75.23
2023-03-03T01:51:07.620Z,75.25
2023-03-03T01:53:43.075Z,75.29
2023-03-03T01:56:11.725Z,75.49
2023-03-03T01:58:49.766Z,75.57
2023-03-03T02:01:22.476Z,75.71
2023-03-03T02:03:53.599Z,75.22
2023-03-03T02:06:30.180Z,75.39
2023-03-03T02:09:08.207Z,75.18
2023-03-03T02:11:38.449Z,75.58
2023-03-03T02:14:06.354Z,74.91
2023-03-03T02:16:34.697Z,75.51
2023-03-03T02:19:05.694Z,75.54
2023-03-03T02:21:33.964Z,75.87
2023-03-03T02:24:19.964Z,75.34
2023-03-03T02:26:48.936Z,76.24
2023-03-03T02:29:16.963Z,74.81
2023-03-03T02:31:45.843Z,74.89
2023-03-03T02:34:13.798Z,74.54
2023-03-03T02:36:42.852Z,74.91
2023-03-03T02:39:23.768Z,74.84
2023-03-03T02:42:08.490Z,75.24
2023-03-03T02:44:42.756Z,74.99
2023-03-03T02:47:11.049Z,75.00
2023-03-03T02:49:39.780Z,75.53
2023-03-03T02:52:10.873Z,75.24
2023-03-03T02:54:41.752Z,75.86
2023-03-03T02:57:10.190Z,75.38
2023-03-03T02:59:38.159Z,75.80
2023-03-03T03:02:13.219Z,76.08
2023-03-03T03:04:42.357Z,75.71
2023-03-03T03:07:12.297Z,76.43
2023-03-03T03:09:40.788Z,77.33
2023-03-03T03:12:09.011Z,76.17
2023-03-03T03:14:37.571Z,75.70
2023-03-03T03:17:07.459Z,75.34
2023-03-03T03:19:35.454Z,75.25
2023-03-03T03:22:04.783Z,75.98
2023-03-03T03:24:35.739Z,76.34
2023-03-03T03:27:06.958Z,77.24
2023-03-03T03:29:35.309Z,76.84
2023-03-03T03:32:03.837Z,76.47
2023-03-03T03:34:31.848Z,76.30
2023-03-03T03:37:00.220Z,77.17
2023-03-03T03:39:29.929Z,77.52
2023-03-03T03:41:58.486Z,77.81
2023-03-03T03:44:26.435Z,77.55
2023-03-03T03:46:56.054Z,78.14
2023-03-03T03:49:24.180Z,78.79
2023-03-03T03:51:54.709Z,77.95
2023-03-03T03:54:26.115Z,79.01
2023-03-03T03:56:55.376Z,78.46
2023-03-03T03:59:24.094Z,78.03
2023-03-03T04:01:52.717Z,78.17
2023-03-03T04:04:22.515Z,79.06
2023-03-03T04:06:51.088Z,79.19
2023-03-03T04:09:20.329Z,78.56
2023-03-03T04:11:49.584Z,77.81
2023-03-03T04:14:18.543Z,77.94
2023-03-03T04:16:46.764Z,78.94
2023-03-03T04:19:14.787Z,78.36
2023-03-03T04:21:44.454Z,79.24
2023-03-03T04:24:12.411Z,78.86
2023-03-03T04:26:40.946Z,79.53
2023-03-03T04:29:10.984Z,79.90
2023-03-03T04:31:39.882Z,78.76
2023-03-03T04:34:10.107Z,79.62
2023-03-03T04:36:38.571Z,80.83
2023-03-03T04:39:06.543Z,80.60
2023-03-03T04:41:35.492Z,80.84
2023-03-03T04:44:03.647Z,81.14
2023-03-03T04:46:31.906Z,81.42
2023-03-03T04:49:00.130Z,81.17
2023-03-03T04:51:28.842Z,80.78
2023-03-03T04:53:56.840Z,80.97
2023-03-03T04:56:25.824Z,81.22
2023-03-03T04:58:53.725Z,80.57
2023-03-03T05:01:22.142Z,81.09
2023-03-03T05:03:51.329Z,80.73
2023-03-03T05:06:19.770Z,80.43
2023-03-03T05:08:47.861Z,81.07
2023-03-03T05:11:16.398Z,81.26
2023-03-03T05:13:44.736Z,81.23
2023-03-03T05:16:13.316Z,80.88
2023-03-03T05:18:45.772Z,81.24
2023-03-03T05:21:14.235Z,81.16
2023-03-03T05:23:42.173Z,82.08
2023-03-03T05:26:10.454Z,82.31
2023-03-03T05:28:38.416Z,81.88
2023-03-03T05:31:06.742Z,82.08
2023-03-03T05:33:34.762Z,81.62
2023-03-03T05:36:02.957Z,81.83
2023-03-03T05:38:30.876Z,82.16
2023-03-03T05:40:59.213Z,81.35
2023-03-03T05:43:27.195Z,82.22
2023-03-03T05:45:59.356Z,82.88
2023-03-03T05:48:27.882Z,83.00
2023-03-03T05:50:59.808Z,82.26
2023-03-03T05:53:29.125Z,81.76
2023-03-03T05:55:57.826Z,81.10
2023-03-03T05:58:25.892Z,81.35
2023-03-03T06:00:54.253Z,84.10
2023-03-03T06:03:22.494Z,82.86
2023-03-03T06:05:50.901Z,82.41
2023-03-03T06:08:18.903Z,83.19
2023-03-03T06:10:47.249Z,82.78
2023-03-03T06:13:16.264Z,82.85
2023-03-03T06:15:44.760Z,83.60
2023-03-03T06:18:12.711Z,84.17
2023-03-03T06:20:40.970Z,83.01
2023-03-03T06:23:08.932Z,83.18
2023-03-03T06:25:40.243Z,84.01
2023-03-03T06:28:08.247Z,83.62
2023-03-03T06:30:36.637Z,83.26
2023-03-03T06:33:04.579Z,83.66
2023-03-03T06:35:33.064Z,82.45
2023-03-03T06:38:01.075Z,83.29
2023-03-03T06:40:29.566Z,83.33
2023-03-03T06:42:57.658Z,83.62
2023-03-03T06:45:25.966Z,84.23
2023-03-03T06:47:53.909Z,82.79
2023-03-03T06:50:22.542Z,81.34
2023-03-03T06:52:51.857Z,79.69
2023-03-03T06:55:23.492Z,79.39
2023-03-03T06:57:51.528Z,79.32
2023-03-03T07:00:30.940Z,77.61
2023-03-03T07:03:11.697Z,77.44
2023-03-03T07:05:40.057Z,76.04
2023-03-03T07:08:20.227Z,74.82
2023-03-03T07:10:49.896Z,74.42
2023-03-03T07:13:26.924Z,72.48
2023-03-03T07:15:57.494Z,71.67
2023-03-03T07:18:34.023Z,70.99
2023-03-03T07:21:23.954Z,69.81
2023-03-03T07:23:54.985Z,68.79
2023-03-03T07:26:33.404Z,68.32
2023-03-03T07:29:22.748Z,67.92
2023-03-03T07:31:52.134Z,67.87
2023-03-03T07:34:27.318Z,68.51
2023-03-03T07:37:00.503Z,67.75
2023-03-03T07:39:40.628Z,67.16
2023-03-03T07:42:35.279Z,65.46
2023-03-03T07:45:32.751Z,65.00
2023-03-03T07:48:24.433Z,63.58
2023-03-03T07:50:53.079Z,62.91
2023-03-03T07:53:29.415Z,62.25
2023-03-03T07:55:57.329Z,60.70
2023-03-03T07:58:38.535Z,59.01
2023-03-03T08:01:40.096Z,58.60
2023-03-03T08:04:25.406Z,58.59
2023-03-03T08:06:56.524Z,57.93
2023-03-03T08:09:31.347Z,57.63
2023-03-03T08:12:08.139Z,59.72
2023-03-03T08:14:39.000Z,61.17
2023-03-03T08:17:25.396Z,61.83
2023-03-03T08:19:56.409Z,60.09
2023-03-03T08:22:37.274Z,60.80
2023-03-03T08:25:05.744Z,61.04
2023-03-03T08:27:33.746Z,60.99
2023-03-03T08:30:02.127Z,61.23
2023-03-03T08:32:30.350Z,61.40
2023-03-03T08:34:58.689Z,60.01
2023-03-03T08:37:26.667Z,60.01
2023-03-03T08:39:54.976Z,59.96
2023-03-03T08:42:22.990Z,59.33
2023-03-03T08:44:51.300Z,59.23
2023-03-03T08:47:19.426Z,58.32
2023-03-03T08:49:47.833Z,58.40
2023-03-03T08:52:15.888Z,57.93
2023-03-03T08:54:44.622Z,57.79
2023-03-03T08:57:12.560Z,56.83
2023-03-03T08:59:41.091Z,56.50
2023-03-03T09:02:09.402Z,56.88
2023-03-03T09:04:37.704Z,55.70
2023-03-03T09:07:05.643Z,54.54
2023-03-03T09:09:34.002Z,54.23
2023-03-03T09:12:15.209Z,53.89
2023-03-03T09:14:43.858Z,53.25
2023-03-03T09:17:30.659Z,52.54
2023-03-03T09:20:11.569Z,52.78
2023-03-03T09:22:39.398Z,52.59
2023-03-03T09:25:22.177Z,53.27
2023-03-03T09:27:52.999Z,53.30
2023-03-03T09:30:27.287Z,51.61
2023-03-03T09:32:58.307Z,51.05
2023-03-03T09:35:29.349Z,51.51
2023-03-03T09:37:57.221Z,49.83
2023-03-03T09:41:16.636Z,49.91
2023-03-03T09:44:17.487Z,48.38
2023-03-03T09:47:06.845Z,50.48
2023-03-03T09:49:38.937Z,49.91
2023-03-03T09:52:39.012Z,50.85
2023-03-03T09:55:25.469Z,50.54
2023-03-03T09:58:12.824Z,51.75
2023-03-03T10:01:02.407Z,53.31
2023-03-03T10:03:42.897Z,52.05
2023-03-03T10:06:33.479Z,51.08
2023-03-03T10:09:19.947Z,50.17
2023-03-03T10:12:00.099Z,50.64
2023-03-03T10:15:11.213Z,50.43
2023-03-03T10:17:54.019Z,50.05
2023-03-03T10:20:48.978Z,49.80
2023-03-03T10:23:37.341Z,49.31
2023-03-03T10:26:38.394Z,48.39
2023-03-03T10:29:38.276Z,47.62
2023-03-03T10:32:33.215Z,47.22
2023-03-03T10:35:14.436Z,47.21
2023-03-03T10:37:45.344Z,45.93
2023-03-03T10:40:41.626Z,46.36
2023-03-03T10:43:32.364Z,47.92
2023-03-03T10:46:10.403Z,49.53
2023-03-03T10:48:44.968Z,48.48
2023-03-03T10:51:34.706Z,48.04
2023-03-03T10:54:24.689Z,49.02
2023-03-03T10:57:20.187Z,46.92
2023-03-03T11:00:19.095Z,46.59
2023-03-03T11:03:04.766Z,46.06
2023-03-03T11:06:00.216Z,47.03
2023-03-03T11:08:46.489Z,48.77
2023-03-03T11:11:41.293Z,48.87
2023-03-03T11:14:32.490Z,48.35
2023-03-03T11:17:49.657Z,46.84
2023-03-03T11:20:29.391Z,45.32
2023-03-03T11:23:00.178Z,46.58
2023-03-03T11:25:34.448Z,46.15
2023-03-03T11:28:15.425Z,46.28
2023-03-03T11:31:02.109Z,46.85
2023-03-03T11:33:52.525Z,45.96
2023-03-03T11:36:39.102Z,44.71
2023-03-03T11:39:13.998Z,46.43
2023-03-03T11:41:58.685Z,45.03
2023-03-03T11:44:40.749Z,44.50
2023-03-03T11:47:31.529Z,44.07
2023-03-03T11:50:08.812Z,43.98
2023-03-03T11:53:00.772Z,45.33
2023-03-03T11:55:37.951Z,45.02
2023-03-03T11:58:16.038Z,43.39
2023-03-03T12:00:51.467Z,43.60
2023-03-03T12:03:26.899Z,42.71
2023-03-03T12:06:04.056Z,41.75
2023-03-03T12:09:00.033Z,41.52
2023-03-03T12:11:54.185Z,43.27
2023-03-03T12:14:45.048Z,42.59
2023-03-03T12:17:31.705Z,42.65
2023-03-03T12:20:14.451Z,42.68
2023-03-03T12:23:06.714Z,41.71
2023-03-03T12:25:45.716Z,39.96
2023-03-03T12:28:21.237Z,40.51
2023-03-03T12:31:04.706Z,40.50
2023-03-03T12:34:11.560Z,40.85
2023-03-03T12:36:47.878Z,41.66
2023-03-03T12:39:41.539Z,40.36
2023-03-03T12:42:14.561Z,40.16
2023-03-03T12:45:13.772Z,39.16
2023-03-03T12:47:49.482Z,40.03
2023-03-03T12:50:27.715Z,39.46
2023-03-03T12:53:38.222Z,40.07
2023-03-03T12:56:09.177Z,39.50
2023-03-03T12:58:36.969Z,38.86
2023-03-03T13:01:28.432Z,39.22
2023-03-03T13:04:12.376Z,39.66
2023-03-03T13:07:05.085Z,39.12
2023-03-03T13:10:06.163Z,39.21
2023-03-03T13:12:43.104Z,39.67
2023-03-03T13:15:31.533Z,38.00
2023-03-03T13:18:19.189Z,37.42
2023-03-03T13:20:56.147Z,38.18
2023-03-03T13:23:38.504Z,36.92
2023-03-03T13:26:17.220Z,36.16
2023-03-03T13:29:01.946Z,36.75
2023-03-03T13:31:37.755Z,36.12
2023-03-03T13:34:09.147Z,35.63
2023-03-03T13:36:54.394Z,34.75
2023-03-03T13:39:28.440Z,35.42
2023-03-03T13:42:19.881Z,34.23
2023-03-03T13:44:50.938Z,35.01
2023-03-03T13:47:42.167Z,34.44
2023-03-03T13:50:28.631Z,34.40
2023-03-03T13:53:22.191Z,34.29
2023-03-03T13:56:15.115Z,34.64
2023-03-03T13:58:49.075Z,34.79
2023-03-03T14:01:25.057Z,34.83
2023-03-03T14:04:11.418Z,34.49
2023-03-03T14:06:43.106Z,34.31
2023-03-03T14:09:34.197Z,33.63
2023-03-03T14:12:17.598Z,35.77
2023-03-03T14:15:09.932Z,35.42
2023-03-03T14:18:02.719Z,33.02
2023-03-03T14:20:32.426Z,32.75
2023-03-03T14:23:27.849Z,32.65
2023-03-03T14:26:00.724Z,32.80
2023-03-03T14:28:30.489Z,33.32
2023-03-03T14:30:59.082Z,33.40
2023-03-03T14:33:31.748Z,32.80
2023-03-03T14:35:59.574Z,33.38
2023-03-03T14:38:33.418Z,33.77
2023-03-03T14:41:18.844Z,33.65
2023-03-03T14:44:20.227Z,34.16
2023-03-03T14:47:03.706Z,34.95
2023-03-03T14:49:33.174Z,34.88
2023-03-03T14:52:19.918Z,35.77
2023-03-03T14:55:00.929Z,36.33
2023-03-03T14:57:47.037Z,37.28
2023-03-03T15:00:15.192Z,35.89
2023-03-03T15:02:56.241Z,35.39
2023-03-03T15:05:27.348Z,35.55
2023-03-03T15:08:09.161Z,35.45
2023-03-03T15:10:40.544Z,35.80
2023-03-03T15:13:20.476Z,35.19
2023-03-03T15:16:19.629Z,33.80
2023-03-03T15:19:13.818Z,34.27
2023-03-03T15:22:00.620Z,35.54
2023-03-03T15:24:41.647Z,36.43
2023-03-03T15:27:21.798Z,36.39
2023-03-03T15:29:58.480Z,36.71
2023-03-03T15:32:39.066Z,37.49
2023-03-03T15:35:20.438Z,37.73
2023-03-03T15:38:11.625Z,38.09
2023-03-03T15:40:49.748Z,37.77
2023-03-03T15:43:25.347Z,37.70
2023-03-03T15:46:12.386Z,39.46
2023-03-03T15:48:40.376Z,40.00
2023-03-03T15:52:02.700Z,41.04
2023-03-03T15:55:12.367Z,41.44
2023-03-03T15:57:46.178Z,42.19
2023-03-03T16:00:41.869Z,41.63
2023-03-03T16:03:17.516Z,42.10
2023-03-03T16:06:01.711Z,41.82
2023-03-03T16:08:53.684Z,42.47
2023-03-03T16:11:29.068Z,42.64
2023-03-03T16:14:11.002Z,42.37
2023-03-03T16:16:53.576Z,42.64
2023-03-03T16:19:45.452Z,42.79
2023-03-03T16:22:24.891Z,43.48
2023-03-03T16:25:20.301Z,43.56
2023-03-03T16:27:59.219Z,44.20
2023-03-03T16:30:40.237Z,44.01
2023-03-03T16:33:23.212Z,43.53
2023-03-03T16:36:27.235Z,44.13
2023-03-03T16:39:40.965Z,44.08
2023-03-03T16:42:26.821Z,45.24
2023-03-03T16:45:21.752Z,45.18
2023-03-03T16:47:53.749Z,46.04
2023-03-03T16:50:21.801Z,45.85
2023-03-03T16:53:23.630Z,46.51
2023-03-03T16:56:09.535Z,46.78
2023-03-03T16:58:42.531Z,47.09
2023-03-03T17:01:33.610Z,47.19
2023-03-03T17:04:05.504Z,46.96
2023-03-03T17:06:59.554Z,46.87
2023-03-03T17:10:06.085Z,47.44
2023-03-03T17:13:11.545Z,47.76
2023-03-03T17:15:57.209Z,47.71
2023-03-03T17:19:00.420Z,47.95
2023-03-03T17:21:36.783Z,49.10
2023-03-03T17:24:23.341Z,49.61
2023-03-03T17:27:04.329Z,50.05
2023-03-03T17:29:51.074Z,51.01
2023-03-03T17:32:24.936Z,51.05
2023-03-03T17:35:14.606Z,52.34
2023-03-03T17:38:00.732Z,53.06
2023-03-03T17:40:44.299Z,53.09
2023-03-03T17:43:28.603Z,52.87
2023-03-03T17:46:01.958Z,53.54
2023-03-03T17:48:39.581Z,53.61
2023-03-03T17:51:29.707Z,53.75
2023-03-03T17:54:08.705Z,53.49
2023-03-03T17:56:40.200Z,53.29
2023-03-03T17:59:42.370Z,54.26
2023-03-03T18:02:33.371Z,54.44
2023-03-03T18:05:26.038Z,54.49
2023-03-03T18:08:09.831Z,54.46
2023-03-03T18:10:59.472Z,54.20
2023-03-03T18:14:02.985Z,54.86
2023-03-03T18:16:58.598Z,55.23
2023-03-03T18:19:49.344Z,55.45
2023-03-03T18:22:24.669Z,55.64
2023-03-03T18:24:52.839Z,55.65
2023-03-03T18:27:43.099Z,56.42
2023-03-03T18:30:17.702Z,56.48
2023-03-03T18:33:01.478Z,56.50
2023-03-03T18:35:38.688Z,56.88
2023-03-03T18:38:19.161Z,57.38
2023-03-03T18:40:52.030Z,57.51
2023-03-03T18:43:44.873Z,57.75
2023-03-03T18:46:24.970Z,58.14
2023-03-03T18:49:06.330Z,57.80
2023-03-03T18:51:34.634Z,58.01
2023-03-03T18:54:16.537Z,57.38
2023-03-03T18:56:53.832Z,57.28
2023-03-03T18:59:30.556Z,57.05
2023-03-03T19:02:08.222Z,58.07
2023-03-03T19:04:39.119Z,57.44
2023-03-03T19:07:16.562Z,58.02
2023-03-03T19:09:50.738Z,58.72
2023-03-03T19:12:39.707Z,58.75
2023-03-03T19:15:29.552Z,58.05
2023-03-03T19:18:01.772Z,59.03
2023-03-03T19:20:42.346Z,58.99
2023-03-03T19:23:37.111Z,59.48
2023-03-03T19:26:23.766Z,59.33
2023-03-03T19:29:10.001Z,59.92
2023-03-03T19:31:49.571Z,60.36
2023-03-03T19:34:44.538Z,60.96
2023-03-03T19:37:37.158Z,61.61
2023-03-03T19:40:32.184Z,61.33
2023-03-03T19:43:17.062Z,61.79
2023-03-03T19:45:47.876Z,61.92
2023-03-03T19:48:24.026Z,62.23
2023-03-03T19:51:10.323Z,61.77
2023-03-03T19:53:44.073Z,61.87
2023-03-03T19:56:24.243Z,62.34
2023-03-03T19:59:03.606Z,62.72
2023-03-03T20:02:03.884Z,62.09
2023-03-03T20:04:53.396Z,62.69
2023-03-03T20:07:42.974Z,63.65
2023-03-03T20:10:29.128Z,63.80
2023-03-03T20:13:21.943Z,64.61
2023-03-03T20:16:20.780Z,64.50
2023-03-03T20:19:16.403Z,65.01
2023-03-03T20:22:08.602Z,64.98
2023-03-03T20:24:55.804Z,65.36
2023-03-03T20:27:58.148Z,65.87
2023-03-03T20:30:26.523Z,65.12
2023-03-03T20:33:02.573Z,65.20
2023-03-03T20:35:52.579Z,65.21
2023-03-03T20:38:33.148Z,65.66
2023-03-03T20:41:07.233Z,66.01
2023-03-03T20:44:01.061Z,66.04
2023-03-03T20:46:44.595Z,66.14
2023-03-03T20:49:28.364Z,66.81
2023-03-03T20:52:03.892Z,67.26
2023-03-03T20:54:50.957Z,67.22
2023-03-03T20:57:36.702Z,66.30
2023-03-03T21:00:11.937Z,66.45
2023-03-03T21:02:41.197Z,67.17
2023-03-03T21:05:10.314Z,66.80
2023-03-03T21:07:38.232Z,66.17
2023-03-03T21:10:13.699Z,66.80
2023-03-03T21:12:41.612Z,67.24
2023-03-03T21:15:22.413Z,67.35
2023-03-03T21:17:50.441Z,66.44
2023-03-03T21:20:25.473Z,66.49
2023-03-03T21:22:54.359Z,65.85
2023-03-03T21:25:40.372Z,64.81
2023-03-03T21:28:15.561Z,63.11
2023-03-03T21:31:02.791Z,63.29
2023-03-03T21:33:42.655Z,62.75
2023-03-03T21:36:11.424Z,63.12
2023-03-03T21:38:39.758Z,63.00
2023-03-03T21:41:08.002Z,63.44
2023-03-03T21:43:40.795Z,63.68
2023-03-03T21:46:08.856Z,64.62
2023-03-03T21:48:40.203Z,63.74
2023-03-03T21:51:08.402Z,64.26
2023-03-03T21:53:36.034Z,64.89
2023-03-03T21:56:03.934Z,63.69
2023-03-03T21:58:31.454Z,63.49
2023-03-03T22:00:59.365Z,63.36
2023-03-03T22:03:27.022Z,63.97
2023-03-03T22:05:54.965Z,64.34
2023-03-03T22:08:25.495Z,64.03
2023-03-03T22:10:56.505Z,64.44
2023-03-03T22:13:25.056Z,64.98
2023-03-03T22:15:53.455Z,64.52
2023-03-03T22:18:21.216Z,64.36
2023-03-03T22:20:50.654Z,64.21
2023-03-03T22:23:19.469Z,64.57
2023-03-03T22:25:48.237Z,63.99
2023-03-03T22:28:15.812Z,64.06
2023-03-03T22:30:43.987Z,62.98
2023-03-03T22:33:11.570Z,62.80
2023-03-03T22:35:39.839Z,62.35
2023-03-03T22:38:07.576Z,61.50
2023-03-03T22:40:35.433Z,62.07
2023-03-03T22:43:02.937Z,62.06
2023-03-03T22:45:30.867Z,62.32
2023-03-03T22:47:58.426Z,62.80
2023-03-03T22:50:26.492Z,62.05
2023-03-03T22:52:55.432Z,62.03
2023-03-03T22:55:23.296Z,62.38
2023-03-03T22:57:50.858Z,62.50
2023-03-03T23:00:18.952Z,63.05
2023-03-03T23:02:46.412Z,63.66
2023-03-03T23:05:14.251Z,63.98
2023-03-03T23:07:42.077Z,63.72
2023-03-03T23:10:10.372Z,63.62
2023-03-03T23:12:38.180Z,63.67
2023-03-03T23:15:13.291Z,64.49
2023-03-03T23:17:41.998Z,65.12
2023-03-03T23:20:11.212Z,64.61
2023-03-03T23:22:38.824Z,64.55
2023-03-03T23:25:07.058Z,64.51
2023-03-03T23:27:34.876Z,64.53
2023-03-03T23:30:03.089Z,65.02
2023-03-03T23:32:30.733Z,64.98
2023-03-03T23:34:58.700Z,64.92
2023-03-03T23:37:26.349Z,65.33
2023-03-03T23:39:54.149Z,66.01
2023-03-03T23:42:21.667Z,66.20
2023-03-03T23:44:49.705Z,66.32
2023-03-03T23:47:17.348Z,66.14
2023-03-03T23:49:45.338Z,65.68
2023-03-03T23:52:12.891Z,66.17
2023-03-03T23:54:40.658Z,66.33
2023-03-03T23:57:08.338Z,66.23
2023-03-03T23:59:36.237Z,66.81
